sensor_id;sensor_type;location;lat;lon;timestamp;P1;durP1;ratioP1;P2;durP2;ratioP2
20146;SDS011;10234;50.856;15.716;2023-03-01T00:02:07;55.97;;;27.33;;
20146;SDS011;10234;50.856;15.716;2023-03-01T00:04:34;53.50;;;29.20;;
20146;SDS011;10234;50.856;15.716;2023-03-01T00:07:01;60.80;;;29.07;;
20146;SDS011;10234;50.856;15.716;2023-03-01T00:09:28;55.13;;;29.40;;
20146;SDS011;10234;50.856;15.716;2023-03-01T00:11:57;56.40;;;29.90;;
20146;SDS011;10234;50.856;15.716;2023-03-01T00:14:24;57.43;;;27.93;;
20146;SDS011;10234;50.856;15.716;2023-03-01T00:16:51;45.50;;;23.17;;
20146;SDS011;10234;50.856;15.716;2023-03-01T00:19:19;50.33;;;24.53;;
20146;SDS011;10234;50.856;15.716;2023-03-01T00:21:47;48.13;;;23.60;;
20146;SDS011;10234;50.856;15.716;2023-03-01T00:24:14;45.50;;;23.90;;
20146;SDS011;10234;50.856;15.716;2023-03-01T00:26:41;47.97;;;25.03;;
20146;SDS011;10234;50.856;15.716;2023-03-01T00:29:10;48.10;;;23.63;;
20146;SDS011;10234;50.856;15.716;2023-03-01T00:31:37;42.23;;;22.63;;
20146;SDS011;10234;50.856;15.716;2023-03-01T00:34:04;99.80;;;43.63;;
20146;SDS011;10234;50.856;15.716;2023-03-01T00:36:33;49.27;;;26.30;;
20146;SDS011;10234;50.856;15.716;2023-03-01T00:39:01;45.23;;;20.77;;
20146;SDS011;10234;50.856;15.716;2023-03-01T00:41:29;44.00;;;22.37;;
20146;SDS011;10234;50.856;15.716;2023-03-01T00:43:56;42.63;;;20.40;;
20146;SDS011;10234;50.856;15.716;2023-03-01T00:46:25;42.53;;;20.67;;
20146;SDS011;10234;50.856;15.716;2023-03-01T00:48:55;39.00;;;20.83;;
20146;SDS011;10234;50.856;15.716;2023-03-01T00:51:22;37.77;;;20.03;;
20146;SDS011;10234;50.856;15.716;2023-03-01T00:53:51;45.13;;;22.97;;
20146;SDS011;10234;50.856;15.716;2023-03-01T00:56:19;46.53;;;22.17;;
20146;SDS011;10234;50.856;15.716;2023-03-01T00:58:46;43.20;;;22.37;;
20146;SDS011;10234;50.856;15.716;2023-03-01T01:01:14;49.53;;;24.63;;
20146;SDS011;10234;50.856;15.716;2023-03-01T01:03:46;40.33;;;19.80;;
20146;SDS011;10234;50.856;15.716;2023-03-01T01:06:15;45.80;;;21.97;;
20146;SDS011;10234;50.856;15.716;2023-03-01T01:08:43;35.80;;;19.93;;
20146;SDS011;10234;50.856;15.716;2023-03-01T01:11:10;45.20;;;21.93;;
20146;SDS011;10234;50.856;15.716;2023-03-01T01:13:37;43.43;;;19.17;;
20146;SDS011;10234;50.856;15.716;2023-03-01T01:16:05;39.57;;;19.33;;
20146;SDS011;10234;50.856;15.716;2023-03-01T01:18:32;43.97;;;22.30;;
20146;SDS011;10234;50.856;15.716;2023-03-01T01:21:04;40.47;;;20.80;;
20146;SDS011;10234;50.856;15.716;2023-03-01T01:23:32;41.73;;;19.97;;
20146;SDS011;10234;50.856;15.716;2023-03-01T01:26:03;46.33;;;21.77;;
20146;SDS011;10234;50.856;15.716;2023-03-01T01:28:30;44.67;;;22.23;;
20146;SDS011;10234;50.856;15.716;2023-03-01T01:30:57;42.70;;;20.40;;
20146;SDS011;10234;50.856;15.716;2023-03-01T01:33:24;41.43;;;18.83;;
20146;SDS011;10234;50.856;15.716;2023-03-01T01:35:52;36.20;;;19.23;;
20146;SDS011;10234;50.856;15.716;2023-03-01T01:38:20;42.03;;;19.30;;
20146;SDS011;10234;50.856;15.716;2023-03-01T01:40:48;38.80;;;18.97;;
20146;SDS011;10234;50.856;15.716;2023-03-01T01:43:18;40.67;;;19.87;;
20146;SDS011;10234;50.856;15.716;2023-03-01T01:45:46;37.33;;;18.07;;
20146;SDS011;10234;50.856;15.716;2023-03-01T01:48:14;42.37;;;20.27;;
20146;SDS011;10234;50.856;15.716;2023-03-01T01:50:45;41.63;;;19.93;;
20146;SDS011;10234;50.856;15.716;2023-03-01T01:53:19;36.73;;;18.70;;
20146;SDS011;10234;50.856;15.716;2023-03-01T01:55:48;39.07;;;20.10;;
20146;SDS011;10234;50.856;15.716;2023-03-01T01:58:24;44.80;;;20.40;;
20146;SDS011;10234;50.856;15.716;2023-03-01T02:00:54;49.10;;;21.33;;
20146;SDS011;10234;50.856;15.716;2023-03-01T02:03:22;42.83;;;20.77;;
20146;SDS011;10234;50.856;15.716;2023-03-01T02:05:55;38.83;;;19.13;;
20146;SDS011;10234;50.856;15.716;2023-03-01T02:08:29;37.37;;;19.73;;
20146;SDS011;10234;50.856;15.716;2023-03-01T02:11:01;40.30;;;18.97;;
20146;SDS011;10234;50.856;15.716;2023-03-01T02:13:29;35.87;;;17.67;;
20146;SDS011;10234;50.856;15.716;2023-03-01T02:15:57;40.13;;;18.37;;
20146;SDS011;10234;50.856;15.716;2023-03-01T02:18:25;32.77;;;17.43;;
20146;SDS011;10234;50.856;15.716;2023-03-01T02:20:57;40.27;;;17.37;;
20146;SDS011;10234;50.856;15.716;2023-03-01T02:23:35;37.23;;;18.47;;
20146;SDS011;10234;50.856;15.716;2023-03-01T02:26:05;36.03;;;18.10;;
20146;SDS011;10234;50.856;15.716;2023-03-01T02:28:40;39.37;;;18.27;;
20146;SDS011;10234;50.856;15.716;2023-03-01T02:31:09;28.63;;;16.97;;
20146;SDS011;10234;50.856;15.716;2023-03-01T02:33:54;33.93;;;15.13;;
20146;SDS011;10234;50.856;15.716;2023-03-01T02:36:24;31.67;;;16.60;;
20146;SDS011;10234;50.856;15.716;2023-03-01T02:38:56;29.27;;;15.43;;
20146;SDS011;10234;50.856;15.716;2023-03-01T02:41:24;23.27;;;13.20;;
20146;SDS011;10234;50.856;15.716;2023-03-01T02:43:55;27.20;;;13.87;;
20146;SDS011;10234;50.856;15.716;2023-03-01T02:46:23;28.37;;;14.83;;
20146;SDS011;10234;50.856;15.716;2023-03-01T02:48:52;25.87;;;12.90;;
20146;SDS011;10234;50.856;15.716;2023-03-01T02:54:13;28.27;;;13.23;;
20146;SDS011;10234;50.856;15.716;2023-03-01T02:56:47;39.03;;;15.90;;
20146;SDS011;10234;50.856;15.716;2023-03-01T02:59:16;32.17;;;16.00;;
20146;SDS011;10234;50.856;15.716;2023-03-01T03:01:45;34.37;;;15.37;;
20146;SDS011;10234;50.856;15.716;2023-03-01T03:04:13;44.47;;;19.33;;
20146;SDS011;10234;50.856;15.716;2023-03-01T03:06:43;38.60;;;19.47;;
20146;SDS011;10234;50.856;15.716;2023-03-01T03:09:10;43.73;;;19.80;;
20146;SDS011;10234;50.856;15.716;2023-03-01T03:11:37;46.20;;;22.50;;
20146;SDS011;10234;50.856;15.716;2023-03-01T03:14:06;40.50;;;19.50;;
20146;SDS011;10234;50.856;15.716;2023-03-01T03:16:38;40.13;;;21.73;;
20146;SDS011;10234;50.856;15.716;2023-03-01T03:19:05;45.00;;;22.27;;
20146;SDS011;10234;50.856;15.716;2023-03-01T03:21:33;53.30;;;24.43;;
20146;SDS011;10234;50.856;15.716;2023-03-01T03:24:00;61.30;;;26.77;;
20146;SDS011;10234;50.856;15.716;2023-03-01T03:26:28;62.80;;;29.50;;
20146;SDS011;10234;50.856;15.716;2023-03-01T03:28:55;60.20;;;28.97;;
20146;SDS011;10234;50.856;15.716;2023-03-01T03:31:23;62.77;;;28.33;;
20146;SDS011;10234;50.856;15.716;2023-03-01T03:33:51;59.37;;;28.27;;
20146;SDS011;10234;50.856;15.716;2023-03-01T03:36:19;60.00;;;27.70;;
20146;SDS011;10234;50.856;15.716;2023-03-01T03:38:47;58.50;;;26.50;;
20146;SDS011;10234;50.856;15.716;2023-03-01T03:41:14;58.80;;;26.03;;
20146;SDS011;10234;50.856;15.716;2023-03-01T03:43:42;51.73;;;24.77;;
20146;SDS011;10234;50.856;15.716;2023-03-01T03:46:10;59.23;;;26.83;;
20146;SDS011;10234;50.856;15.716;2023-03-01T03:48:39;55.23;;;24.37;;
20146;SDS011;10234;50.856;15.716;2023-03-01T03:51:09;48.13;;;24.63;;
20146;SDS011;10234;50.856;15.716;2023-03-01T03:53:37;41.97;;;20.73;;
20146;SDS011;10234;50.856;15.716;2023-03-01T03:56:04;44.70;;;21.80;;
20146;SDS011;10234;50.856;15.716;2023-03-01T03:58:32;39.97;;;19.33;;
20146;SDS011;10234;50.856;15.716;2023-03-01T04:00:59;31.57;;;16.93;;
20146;SDS011;10234;50.856;15.716;2023-03-01T04:03:27;34.07;;;16.73;;
20146;SDS011;10234;50.856;15.716;2023-03-01T04:05:56;39.33;;;18.13;;
20146;SDS011;10234;50.856;15.716;2023-03-01T04:08:25;34.20;;;18.07;;
20146;SDS011;10234;50.856;15.716;2023-03-01T04:10:56;36.83;;;19.57;;
20146;SDS011;10234;50.856;15.716;2023-03-01T04:13:24;36.87;;;17.03;;
20146;SDS011;10234;50.856;15.716;2023-03-01T04:15:52;44.00;;;19.17;;
20146;SDS011;10234;50.856;15.716;2023-03-01T04:18:20;40.20;;;17.40;;
20146;SDS011;10234;50.856;15.716;2023-03-01T04:20:48;34.87;;;17.57;;
20146;SDS011;10234;50.856;15.716;2023-03-01T04:23:18;32.10;;;16.03;;
20146;SDS011;10234;50.856;15.716;2023-03-01T04:25:48;34.40;;;16.07;;
20146;SDS011;10234;50.856;15.716;2023-03-01T04:28:20;25.83;;;14.50;;
20146;SDS011;10234;50.856;15.716;2023-03-01T04:30:49;34.97;;;17.77;;
20146;SDS011;10234;50.856;15.716;2023-03-01T04:33:17;32.03;;;16.37;;
20146;SDS011;10234;50.856;15.716;2023-03-01T04:35:44;26.23;;;15.07;;
20146;SDS011;10234;50.856;15.716;2023-03-01T04:38:14;32.97;;;16.53;;
20146;SDS011;10234;50.856;15.716;2023-03-01T04:40:41;30.73;;;15.00;;
20146;SDS011;10234;50.856;15.716;2023-03-01T04:43:10;28.40;;;13.80;;
20146;SDS011;10234;50.856;15.716;2023-03-01T04:45:39;27.63;;;13.47;;
20146;SDS011;10234;50.856;15.716;2023-03-01T04:48:06;30.67;;;14.50;;
20146;SDS011;10234;50.856;15.716;2023-03-01T04:50:33;29.33;;;15.47;;
20146;SDS011;10234;50.856;15.716;2023-03-01T04:53:01;35.10;;;16.37;;
20146;SDS011;10234;50.856;15.716;2023-03-01T04:55:28;43.27;;;18.93;;
20146;SDS011;10234;50.856;15.716;2023-03-01T04:57:56;32.00;;;18.53;;
20146;SDS011;10234;50.856;15.716;2023-03-01T05:00:24;28.30;;;16.40;;
20146;SDS011;10234;50.856;15.716;2023-03-01T05:02:52;38.57;;;17.53;;
20146;SDS011;10234;50.856;15.716;2023-03-01T05:05:21;31.37;;;15.40;;
20146;SDS011;10234;50.856;15.716;2023-03-01T05:07:51;31.17;;;15.90;;
20146;SDS011;10234;50.856;15.716;2023-03-01T05:10:21;29.97;;;15.80;;
20146;SDS011;10234;50.856;15.716;2023-03-01T05:12:49;33.47;;;16.53;;
20146;SDS011;10234;50.856;15.716;2023-03-01T05:15:17;27.93;;;13.43;;
20146;SDS011;10234;50.856;15.716;2023-03-01T05:17:48;24.77;;;13.17;;
20146;SDS011;10234;50.856;15.716;2023-03-01T05:20:15;29.50;;;14.97;;
20146;SDS011;10234;50.856;15.716;2023-03-01T05:22:42;28.57;;;14.00;;
20146;SDS011;10234;50.856;15.716;2023-03-01T05:25:09;28.13;;;14.67;;
20146;SDS011;10234;50.856;15.716;2023-03-01T05:27:38;32.00;;;14.17;;
20146;SDS011;10234;50.856;15.716;2023-03-01T05:30:06;30.90;;;14.20;;
20146;SDS011;10234;50.856;15.716;2023-03-01T05:32:42;25.70;;;13.27;;
20146;SDS011;10234;50.856;15.716;2023-03-01T05:35:12;28.10;;;13.30;;
20146;SDS011;10234;50.856;15.716;2023-03-01T05:37:40;25.77;;;13.30;;
20146;SDS011;10234;50.856;15.716;2023-03-01T05:40:08;26.33;;;12.70;;
20146;SDS011;10234;50.856;15.716;2023-03-01T05:42:41;24.63;;;10.67;;
20146;SDS011;10234;50.856;15.716;2023-03-01T05:45:12;25.27;;;11.80;;
20146;SDS011;10234;50.856;15.716;2023-03-01T05:47:40;20.33;;;11.10;;
20146;SDS011;10234;50.856;15.716;2023-03-01T05:50:11;25.50;;;12.30;;
20146;SDS011;10234;50.856;15.716;2023-03-01T05:52:38;29.37;;;12.00;;
20146;SDS011;10234;50.856;15.716;2023-03-01T05:55:06;22.57;;;11.27;;
20146;SDS011;10234;50.856;15.716;2023-03-01T05:57:33;22.90;;;12.00;;
20146;SDS011;10234;50.856;15.716;2023-03-01T06:00:01;26.13;;;13.10;;
20146;SDS011;10234;50.856;15.716;2023-03-01T06:02:28;29.73;;;14.93;;
20146;SDS011;10234;50.856;15.716;2023-03-01T06:04:55;26.80;;;14.27;;
20146;SDS011;10234;50.856;15.716;2023-03-01T06:07:23;35.87;;;15.60;;
20146;SDS011;10234;50.856;15.716;2023-03-01T06:09:50;32.40;;;14.87;;
20146;SDS011;10234;50.856;15.716;2023-03-01T06:12:17;33.90;;;15.93;;
20146;SDS011;10234;50.856;15.716;2023-03-01T06:14:45;33.40;;;16.80;;
20146;SDS011;10234;50.856;15.716;2023-03-01T06:17:12;32.93;;;16.93;;
20146;SDS011;10234;50.856;15.716;2023-03-01T06:19:39;32.30;;;17.10;;
20146;SDS011;10234;50.856;15.716;2023-03-01T06:22:06;33.13;;;17.77;;
20146;SDS011;10234;50.856;15.716;2023-03-01T06:24:35;35.93;;;18.67;;
20146;SDS011;10234;50.856;15.716;2023-03-01T06:27:02;35.77;;;18.53;;
20146;SDS011;10234;50.856;15.716;2023-03-01T06:29:29;36.57;;;19.67;;
20146;SDS011;10234;50.856;15.716;2023-03-01T06:31:56;39.67;;;20.73;;
20146;SDS011;10234;50.856;15.716;2023-03-01T06:34:23;36.83;;;20.60;;
20146;SDS011;10234;50.856;15.716;2023-03-01T06:36:50;32.57;;;18.47;;
20146;SDS011;10234;50.856;15.716;2023-03-01T06:39:17;32.95;;;17.70;;
20146;SDS011;10234;50.856;15.716;2023-03-01T06:41:45;32.28;;;17.20;;
20146;SDS011;10234;50.856;15.716;2023-03-01T06:44:12;28.02;;;16.42;;
20146;SDS011;10234;50.856;15.716;2023-03-01T06:46:39;26.27;;;16.38;;
20146;SDS011;10234;50.856;15.716;2023-03-01T06:49:06;28.17;;;14.80;;
20146;SDS011;10234;50.856;15.716;2023-03-01T06:51:34;22.88;;;14.43;;
20146;SDS011;10234;50.856;15.716;2023-03-01T06:54:02;16.92;;;12.40;;
20146;SDS011;10234;50.856;15.716;2023-03-01T06:56:29;17.27;;;12.20;;
20146;SDS011;10234;50.856;15.716;2023-03-01T06:58:58;18.02;;;11.88;;
20146;SDS011;10234;50.856;15.716;2023-03-01T07:01:25;18.13;;;11.57;;
20146;SDS011;10234;50.856;15.716;2023-03-01T07:03:52;17.92;;;11.43;;
20146;SDS011;10234;50.856;15.716;2023-03-01T07:06:19;19.42;;;12.02;;
20146;SDS011;10234;50.856;15.716;2023-03-01T07:08:46;16.20;;;10.98;;
20146;SDS011;10234;50.856;15.716;2023-03-01T07:11:13;17.15;;;11.57;;
20146;SDS011;10234;50.856;15.716;2023-03-01T07:13:40;14.68;;;11.13;;
20146;SDS011;10234;50.856;15.716;2023-03-01T07:16:08;18.02;;;11.02;;
20146;SDS011;10234;50.856;15.716;2023-03-01T07:18:35;17.58;;;11.93;;
20146;SDS011;10234;50.856;15.716;2023-03-01T07:21:06;17.38;;;11.50;;
20146;SDS011;10234;50.856;15.716;2023-03-01T07:23:34;15.00;;;10.73;;
20146;SDS011;10234;50.856;15.716;2023-03-01T07:26:00;17.60;;;11.65;;
20146;SDS011;10234;50.856;15.716;2023-03-01T07:28:27;15.70;;;10.48;;
20146;SDS011;10234;50.856;15.716;2023-03-01T07:30:55;16.25;;;11.63;;
20146;SDS011;10234;50.856;15.716;2023-03-01T07:33:28;15.32;;;11.23;;
20146;SDS011;10234;50.856;15.716;2023-03-01T07:35:55;18.40;;;11.82;;
20146;SDS011;10234;50.856;15.716;2023-03-01T07:38:23;15.43;;;10.98;;
20146;SDS011;10234;50.856;15.716;2023-03-01T07:40:51;16.67;;;10.50;;
20146;SDS011;10234;50.856;15.716;2023-03-01T07:43:18;15.70;;;11.52;;
20146;SDS011;10234;50.856;15.716;2023-03-01T07:45:45;16.05;;;11.93;;
20146;SDS011;10234;50.856;15.716;2023-03-01T07:48:12;17.73;;;13.30;;
20146;SDS011;10234;50.856;15.716;2023-03-01T07:50:41;20.05;;;13.30;;
20146;SDS011;10234;50.856;15.716;2023-03-01T07:53:08;27.17;;;19.48;;
20146;SDS011;10234;50.856;15.716;2023-03-01T07:55:35;30.25;;;19.58;;
20146;SDS011;10234;50.856;15.716;2023-03-01T07:58:02;29.73;;;20.58;;
20146;SDS011;10234;50.856;15.716;2023-03-01T08:00:29;30.67;;;20.85;;
20146;SDS011;10234;50.856;15.716;2023-03-01T08:02:58;29.40;;;19.55;;
20146;SDS011;10234;50.856;15.716;2023-03-01T08:05:25;27.75;;;19.42;;
20146;SDS011;10234;50.856;15.716;2023-03-01T08:07:54;28.77;;;19.27;;
20146;SDS011;10234;50.856;15.716;2023-03-01T08:10:21;30.20;;;20.40;;
20146;SDS011;10234;50.856;15.716;2023-03-01T08:12:48;26.15;;;19.23;;
20146;SDS011;10234;50.856;15.716;2023-03-01T08:15:17;26.73;;;17.13;;
20146;SDS011;10234;50.856;15.716;2023-03-01T08:17:44;23.17;;;17.25;;
20146;SDS011;10234;50.856;15.716;2023-03-01T08:20:11;24.55;;;17.73;;
20146;SDS011;10234;50.856;15.716;2023-03-01T08:22:38;23.67;;;18.02;;
20146;SDS011;10234;50.856;15.716;2023-03-01T08:25:07;29.00;;;19.15;;
20146;SDS011;10234;50.856;15.716;2023-03-01T08:27:34;31.50;;;19.67;;
20146;SDS011;10234;50.856;15.716;2023-03-01T08:30:02;26.23;;;18.25;;
20146;SDS011;10234;50.856;15.716;2023-03-01T08:32:29;26.98;;;18.73;;
20146;SDS011;10234;50.856;15.716;2023-03-01T08:34:56;25.70;;;19.73;;
20146;SDS011;10234;50.856;15.716;2023-03-01T08:37:23;26.33;;;18.45;;
20146;SDS011;10234;50.856;15.716;2023-03-01T08:39:49;26.25;;;18.15;;
20146;SDS011;10234;50.856;15.716;2023-03-01T08:42:18;27.17;;;19.38;;
20146;SDS011;10234;50.856;15.716;2023-03-01T08:44:45;29.80;;;18.67;;
20146;SDS011;10234;50.856;15.716;2023-03-01T08:47:11;27.33;;;19.00;;
20146;SDS011;10234;50.856;15.716;2023-03-01T08:49:38;31.38;;;19.33;;
20146;SDS011;10234;50.856;15.716;2023-03-01T08:52:05;34.63;;;22.27;;
20146;SDS011;10234;50.856;15.716;2023-03-01T08:54:32;26.05;;;17.95;;
20146;SDS011;10234;50.856;15.716;2023-03-01T08:57:00;23.30;;;17.92;;
20146;SDS011;10234;50.856;15.716;2023-03-01T08:59:29;24.42;;;18.25;;
20146;SDS011;10234;50.856;15.716;2023-03-01T09:02:00;23.83;;;17.85;;
20146;SDS011;10234;50.856;15.716;2023-03-01T09:04:27;27.67;;;19.48;;
20146;SDS011;10234;50.856;15.716;2023-03-01T09:06:54;24.55;;;19.10;;
20146;SDS011;10234;50.856;15.716;2023-03-01T09:09:21;23.42;;;16.85;;
20146;SDS011;10234;50.856;15.716;2023-03-01T09:11:48;26.80;;;19.23;;
20146;SDS011;10234;50.856;15.716;2023-03-01T09:14:15;28.05;;;19.35;;
20146;SDS011;10234;50.856;15.716;2023-03-01T09:16:44;29.65;;;22.75;;
20146;SDS011;10234;50.856;15.716;2023-03-01T09:19:11;37.30;;;26.45;;
20146;SDS011;10234;50.856;15.716;2023-03-01T09:21:38;35.97;;;24.48;;
20146;SDS011;10234;50.856;15.716;2023-03-01T09:24:05;31.85;;;23.00;;
20146;SDS011;10234;50.856;15.716;2023-03-01T09:26:38;37.70;;;23.95;;
20146;SDS011;10234;50.856;15.716;2023-03-01T09:29:05;34.65;;;22.73;;
20146;SDS011;10234;50.856;15.716;2023-03-01T09:31:34;31.63;;;23.60;;
20146;SDS011;10234;50.856;15.716;2023-03-01T09:34:02;33.10;;;22.63;;
20146;SDS011;10234;50.856;15.716;2023-03-01T09:36:29;33.95;;;22.67;;
20146;SDS011;10234;50.856;15.716;2023-03-01T09:38:57;35.22;;;22.30;;
20146;SDS011;10234;50.856;15.716;2023-03-01T09:44:12;32.60;;;21.30;;
20146;SDS011;10234;50.856;15.716;2023-03-01T09:46:46;29.73;;;21.00;;
20146;SDS011;10234;50.856;15.716;2023-03-01T09:49:16;29.27;;;21.15;;
20146;SDS011;10234;50.856;15.716;2023-03-01T09:51:47;31.83;;;21.35;;
20146;SDS011;10234;50.856;15.716;2023-03-01T09:54:21;27.40;;;20.60;;
20146;SDS011;10234;50.856;15.716;2023-03-01T09:56:53;27.27;;;20.55;;
20146;SDS011;10234;50.856;15.716;2023-03-01T09:59:35;27.77;;;20.77;;
20146;SDS011;10234;50.856;15.716;2023-03-01T10:02:17;29.50;;;21.30;;
20146;SDS011;10234;50.856;15.716;2023-03-01T10:04:52;27.65;;;21.80;;
20146;SDS011;10234;50.856;15.716;2023-03-01T10:07:27;28.98;;;21.10;;
20146;SDS011;10234;50.856;15.716;2023-03-01T10:09:59;28.73;;;21.30;;
20146;SDS011;10234;50.856;15.716;2023-03-01T10:12:31;33.25;;;21.27;;
20146;SDS011;10234;50.856;15.716;2023-03-01T10:15:02;28.02;;;21.20;;
20146;SDS011;10234;50.856;15.716;2023-03-01T10:17:38;29.13;;;21.55;;
20146;SDS011;10234;50.856;15.716;2023-03-01T10:20:18;28.73;;;21.52;;
20146;SDS011;10234;50.856;15.716;2023-03-01T10:22:47;32.05;;;23.83;;
20146;SDS011;10234;50.856;15.716;2023-03-01T10:25:20;28.52;;;22.65;;
20146;SDS011;10234;50.856;15.716;2023-03-01T10:27:55;31.95;;;23.23;;
20146;SDS011;10234;50.856;15.716;2023-03-01T10:30:32;31.83;;;22.90;;
20146;SDS011;10234;50.856;15.716;2023-03-01T10:33:03;30.10;;;22.95;;
20146;SDS011;10234;50.856;15.716;2023-03-01T10:35:42;31.05;;;22.90;;
20146;SDS011;10234;50.856;15.716;2023-03-01T10:38:10;30.92;;;22.77;;
20146;SDS011;10234;50.856;15.716;2023-03-01T10:40:49;28.08;;;22.35;;
20146;SDS011;10234;50.856;15.716;2023-03-01T10:43:18;32.45;;;22.40;;
20146;SDS011;10234;50.856;15.716;2023-03-01T10:45:45;29.95;;;22.67;;
20146;SDS011;10234;50.856;15.716;2023-03-01T10:48:13;28.73;;;21.70;;
20146;SDS011;10234;50.856;15.716;2023-03-01T10:50:43;29.05;;;22.25;;
20146;SDS011;10234;50.856;15.716;2023-03-01T10:53:22;33.30;;;23.85;;
20146;SDS011;10234;50.856;15.716;2023-03-01T10:55:58;29.83;;;22.35;;
20146;SDS011;10234;50.856;15.716;2023-03-01T10:58:27;29.35;;;22.17;;
20146;SDS011;10234;50.856;15.716;2023-03-01T11:00:55;27.33;;;20.73;;
20146;SDS011;10234;50.856;15.716;2023-03-01T11:03:24;24.27;;;19.02;;
20146;SDS011;10234;50.856;15.716;2023-03-01T11:05:58;23.88;;;19.67;;
20146;SDS011;10234;50.856;15.716;2023-03-01T11:08:31;22.85;;;18.35;;
20146;SDS011;10234;50.856;15.716;2023-03-01T11:11:18;24.45;;;17.88;;
20146;SDS011;10234;50.856;15.716;2023-03-01T11:13:53;20.40;;;16.40;;
20146;SDS011;10234;50.856;15.716;2023-03-01T11:16:22;22.77;;;17.30;;
20146;SDS011;10234;50.856;15.716;2023-03-01T11:18:55;20.88;;;16.58;;
20146;SDS011;10234;50.856;15.716;2023-03-01T11:21:25;20.50;;;16.17;;
20146;SDS011;10234;50.856;15.716;2023-03-01T11:23:54;18.60;;;16.05;;
20146;SDS011;10234;50.856;15.716;2023-03-01T11:26:22;21.10;;;16.55;;
20146;SDS011;10234;50.856;15.716;2023-03-01T11:28:50;21.80;;;16.45;;
20146;SDS011;10234;50.856;15.716;2023-03-01T11:31:22;18.15;;;13.88;;
20146;SDS011;10234;50.856;15.716;2023-03-01T11:33:53;19.55;;;15.88;;
20146;SDS011;10234;50.856;15.716;2023-03-01T11:36:26;22.17;;;15.23;;
20146;SDS011;10234;50.856;15.716;2023-03-01T11:38:57;20.67;;;16.33;;
20146;SDS011;10234;50.856;15.716;2023-03-01T11:41:31;22.70;;;16.77;;
20146;SDS011;10234;50.856;15.716;2023-03-01T11:44:01;19.20;;;13.30;;
20146;SDS011;10234;50.856;15.716;2023-03-01T11:46:39;21.45;;;15.95;;
20146;SDS011;10234;50.856;15.716;2023-03-01T11:49:34;22.45;;;15.65;;
20146;SDS011;10234;50.856;15.716;2023-03-01T11:52:17;22.73;;;16.38;;
20146;SDS011;10234;50.856;15.716;2023-03-01T11:54:52;19.20;;;14.27;;
20146;SDS011;10234;50.856;15.716;2023-03-01T11:57:33;18.77;;;14.20;;
20146;SDS011;10234;50.856;15.716;2023-03-01T12:00:18;18.90;;;14.50;;
20146;SDS011;10234;50.856;15.716;2023-03-01T12:09:06;17.02;;;13.73;;
20146;SDS011;10234;50.856;15.716;2023-03-01T12:11:53;22.20;;;14.90;;
20146;SDS011;10234;50.856;15.716;2023-03-01T12:14:41;18.50;;;14.90;;
20146;SDS011;10234;50.856;15.716;2023-03-01T12:17:18;18.80;;;13.88;;
20146;SDS011;10234;50.856;15.716;2023-03-01T12:20:05;21.17;;;14.70;;
20146;SDS011;10234;50.856;15.716;2023-03-01T12:22:43;18.75;;;13.90;;
20146;SDS011;10234;50.856;15.716;2023-03-01T12:25:25;19.83;;;13.38;;
20146;SDS011;10234;50.856;15.716;2023-03-01T12:28:14;19.52;;;13.32;;
20146;SDS011;10234;50.856;15.716;2023-03-01T12:31:02;17.38;;;12.85;;
20146;SDS011;10234;50.856;15.716;2023-03-01T12:33:51;19.77;;;13.65;;
20146;SDS011;10234;50.856;15.716;2023-03-01T12:36:27;19.02;;;14.02;;
20146;SDS011;10234;50.856;15.716;2023-03-01T12:39:10;16.55;;;12.93;;
20146;SDS011;10234;50.856;15.716;2023-03-01T12:41:53;18.25;;;13.15;;
20146;SDS011;10234;50.856;15.716;2023-03-01T12:44:33;16.75;;;12.60;;
20146;SDS011;10234;50.856;15.716;2023-03-01T12:47:13;15.80;;;12.90;;
20146;SDS011;10234;50.856;15.716;2023-03-01T12:49:55;18.90;;;13.82;;
20146;SDS011;10234;50.856;15.716;2023-03-01T12:52:26;19.20;;;13.10;;
20146;SDS011;10234;50.856;15.716;2023-03-01T12:54:57;17.98;;;13.20;;
20146;SDS011;10234;50.856;15.716;2023-03-01T12:57:29;21.48;;;13.45;;
20146;SDS011;10234;50.856;15.716;2023-03-01T13:00:06;19.75;;;13.75;;
20146;SDS011;10234;50.856;15.716;2023-03-01T13:02:45;20.30;;;13.90;;
20146;SDS011;10234;50.856;15.716;2023-03-01T13:05:20;18.77;;;13.75;;
20146;SDS011;10234;50.856;15.716;2023-03-01T13:07:55;19.90;;;14.55;;
20146;SDS011;10234;50.856;15.716;2023-03-01T13:10:29;19.85;;;14.43;;
20146;SDS011;10234;50.856;15.716;2023-03-01T13:13:02;24.08;;;14.40;;
20146;SDS011;10234;50.856;15.716;2023-03-01T13:15:35;20.58;;;13.80;;
20146;SDS011;10234;50.856;15.716;2023-03-01T13:18:04;20.63;;;12.93;;
20146;SDS011;10234;50.856;15.716;2023-03-01T13:20:55;17.88;;;13.15;;
20146;SDS011;10234;50.856;15.716;2023-03-01T13:23:26;19.30;;;12.43;;
20146;SDS011;10234;50.856;15.716;2023-03-01T13:26:04;19.80;;;12.98;;
20146;SDS011;10234;50.856;15.716;2023-03-01T13:28:45;18.55;;;12.68;;
20146;SDS011;10234;50.856;15.716;2023-03-01T13:34:44;18.65;;;12.55;;
20146;SDS011;10234;50.856;15.716;2023-03-01T13:37:18;17.15;;;11.82;;
20146;SDS011;10234;50.856;15.716;2023-03-01T13:39:45;21.17;;;13.43;;
20146;SDS011;10234;50.856;15.716;2023-03-01T13:42:31;17.75;;;12.50;;
20146;SDS011;10234;50.856;15.716;2023-03-01T13:45:00;18.88;;;12.35;;
20146;SDS011;10234;50.856;15.716;2023-03-01T13:47:28;18.23;;;12.23;;
20146;SDS011;10234;50.856;15.716;2023-03-01T13:49:56;17.85;;;12.77;;
20146;SDS011;10234;50.856;15.716;2023-03-01T13:52:34;20.15;;;12.38;;
20146;SDS011;10234;50.856;15.716;2023-03-01T13:55:05;19.05;;;12.63;;
20146;SDS011;10234;50.856;15.716;2023-03-01T13:57:37;19.35;;;12.75;;
20146;SDS011;10234;50.856;15.716;2023-03-01T14:02:54;18.42;;;10.95;;
20146;SDS011;10234;50.856;15.716;2023-03-01T14:05:26;15.13;;;10.60;;
20146;SDS011;10234;50.856;15.716;2023-03-01T14:07:54;16.80;;;10.90;;
20146;SDS011;10234;50.856;15.716;2023-03-01T14:10:21;18.25;;;12.60;;
20146;SDS011;10234;50.856;15.716;2023-03-01T14:12:48;19.08;;;11.55;;
20146;SDS011;10234;50.856;15.716;2023-03-01T14:15:18;19.65;;;12.35;;
20146;SDS011;10234;50.856;15.716;2023-03-01T14:17:49;20.20;;;11.85;;
20146;SDS011;10234;50.856;15.716;2023-03-01T14:20:25;17.52;;;11.25;;
20146;SDS011;10234;50.856;15.716;2023-03-01T14:22:52;16.40;;;10.57;;
20146;SDS011;10234;50.856;15.716;2023-03-01T14:25:21;17.42;;;10.85;;
20146;SDS011;10234;50.856;15.716;2023-03-01T14:27:54;17.10;;;11.70;;
20146;SDS011;10234;50.856;15.716;2023-03-01T14:30:24;14.43;;;10.30;;
20146;SDS011;10234;50.856;15.716;2023-03-01T14:32:53;15.05;;;9.95;;
20146;SDS011;10234;50.856;15.716;2023-03-01T14:35:22;15.82;;;10.45;;
20146;SDS011;10234;50.856;15.716;2023-03-01T14:37:51;18.27;;;11.35;;
20146;SDS011;10234;50.856;15.716;2023-03-01T14:40:25;19.52;;;11.18;;
20146;SDS011;10234;50.856;15.716;2023-03-01T14:42:55;19.70;;;12.90;;
20146;SDS011;10234;50.856;15.716;2023-03-01T14:45:24;20.73;;;13.80;;